createdAt,value
2023-05-02T00:00:02.490Z,29.00
2023-05-02T00:01:05.301Z,23.75
2023-05-02T00:02:06.739Z,24.00
2023-05-02T00:03:09.317Z,23.00
2023-05-02T00:04:11.002Z,25.75
2023-05-02T00:05:13.421Z,26.75
2023-05-02T00:06:14.889Z,25.00
2023-05-02T00:07:17.289Z,22.75
2023-05-02T00:08:18.688Z,28.25
2023-05-02T00:09:21.519Z,25.75
2023-05-02T00:10:22.935Z,25.00
2023-05-02T00:11:26.706Z,29.00
2023-05-02T00:12:28.096Z,26.50
2023-05-02T00:13:30.459Z,28.75
2023-05-02T00:14:31.948Z,27.00
2023-05-02T00:15:34.324Z,31.00
2023-05-02T00:16:35.777Z,26.50
2023-05-02T00:17:38.252Z,29.25
2023-05-02T00:18:39.643Z,30.75
2023-05-02T00:19:42.093Z,29.75
2023-05-02T00:20:43.519Z,27.25
2023-05-02T00:21:48.112Z,30.50
2023-05-02T00:22:49.517Z,27.50
2023-05-02T00:23:52.004Z,31.25
2023-05-02T00:24:56.163Z,26.50
2023-05-02T00:25:58.535Z,32.00
2023-05-02T00:27:01.264Z,28.00
2023-05-02T00:28:03.598Z,27.25
2023-05-02T00:29:05.238Z,30.00
2023-05-02T00:30:08.452Z,30.25
2023-05-02T00:31:10.481Z,31.25
2023-05-02T00:32:12.917Z,31.75
2023-05-02T00:33:15.002Z,26.50
2023-05-02T00:34:17.541Z,26.00
2023-05-02T00:35:19.152Z,28.75
2023-05-02T00:36:21.520Z,29.75
2023-05-02T00:37:25.835Z,25.25
2023-05-02T00:38:28.319Z,31.75
2023-05-02T00:39:29.742Z,32.00
2023-05-02T00:40:32.156Z,25.25
2023-05-02T00:41:33.580Z,27.25
2023-05-02T00:42:37.313Z,27.25
2023-05-02T00:43:39.511Z,26.50
2023-05-02T00:44:41.858Z,26.00
2023-05-02T00:45:43.583Z,27.75
2023-05-02T00:46:45.963Z,27.75
2023-05-02T00:47:47.503Z,27.00
2023-05-02T00:48:49.870Z,28.75
2023-05-02T00:49:51.256Z,29.50
2023-05-02T00:50:53.691Z,27.00
2023-05-02T00:51:55.157Z,31.75
2023-05-02T00:52:57.541Z,29.75
2023-05-02T00:53:59.074Z,28.25
2023-05-02T00:55:02.334Z,29.50
2023-05-02T00:56:03.857Z,30.00
2023-05-02T00:57:06.667Z,27.50
2023-05-02T00:58:11.680Z,29.25
2023-05-02T00:59:14.063Z,28.00
2023-05-02T01:00:15.803Z,28.00
2023-05-02T01:01:23.963Z,30.75
2023-05-02T01:02:31.099Z,28.75
2023-05-02T01:03:36.048Z,26.00
2023-05-02T01:04:39.777Z,27.50
2023-05-02T01:05:43.682Z,25.75
2023-05-02T01:06:48.665Z,28.75
2023-05-02T01:07:59.401Z,29.00
2023-05-02T01:09:02.594Z,27.50
2023-05-02T01:10:10.205Z,30.00
2023-05-02T01:11:15.027Z,26.75
2023-05-02T01:12:20.610Z,28.50
2023-05-02T01:13:24.485Z,30.25
2023-05-02T01:14:26.847Z,29.75
2023-05-02T01:15:29.606Z,32.75
2023-05-02T01:16:32.098Z,29.25
2023-05-02T01:17:33.584Z,31.50
2023-05-02T01:18:36.766Z,29.75
2023-05-02T01:19:38.429Z,28.00
2023-05-02T01:20:41.925Z,28.50
2023-05-02T01:21:43.393Z,25.50
2023-05-02T01:22:45.744Z,26.75
2023-05-02T01:23:52.973Z,26.50
2023-05-02T01:24:55.959Z,24.75
2023-05-02T01:26:02.379Z,26.00
2023-05-02T01:27:08.559Z,27.25
2023-05-02T01:28:11.519Z,26.50
2023-05-02T01:29:15.343Z,28.00
2023-05-02T01:30:17.890Z,31.00
2023-05-02T01:31:20.392Z,28.75
2023-05-02T01:32:22.159Z,27.25
2023-05-02T01:33:25.219Z,27.25
2023-05-02T01:34:26.700Z,26.25
2023-05-02T01:35:29.084Z,28.50
2023-05-02T01:36:31.638Z,24.50
2023-05-02T01:37:34.077Z,25.75
2023-05-02T01:38:35.900Z,27.25
2023-05-02T01:39:38.282Z,28.25
2023-05-02T01:40:39.684Z,28.00
2023-05-02T01:41:42.253Z,28.00
2023-05-02T01:42:44.708Z,32.00
2023-05-02T01:43:47.102Z,28.75
2023-05-02T01:44:49.866Z,28.00
2023-05-02T01:45:53.096Z,29.75
2023-05-02T01:46:55.060Z,29.00
2023-05-02T01:47:57.722Z,27.25
2023-05-02T01:48:59.176Z,27.25
2023-05-02T01:50:01.812Z,26.00
2023-05-02T01:51:03.567Z,26.75
2023-05-02T01:52:06.440Z,27.75
2023-05-02T01:53:07.875Z,27.00
2023-05-02T01:54:10.270Z,24.50
2023-05-02T01:55:12.712Z,26.00
2023-05-02T01:56:15.082Z,23.25
2023-05-02T01:57:16.647Z,29.00
2023-05-02T01:58:19.073Z,27.50
2023-05-02T01:59:20.870Z,27.00
2023-05-02T02:00:24.715Z,23.25
2023-05-02T02:01:27.510Z,25.00
2023-05-02T02:02:30.091Z,24.75
2023-05-02T02:03:32.023Z,26.00
2023-05-02T02:04:34.623Z,24.00
2023-05-02T02:05:36.040Z,25.00
2023-05-02T02:06:38.489Z,21.00
2023-05-02T02:07:40.073Z,22.75
2023-05-02T02:08:43.224Z,25.00
2023-05-02T02:09:44.625Z,22.00
2023-05-02T02:10:47.142Z,21.75
2023-05-02T02:11:49.483Z,25.25
2023-05-02T02:12:52.341Z,21.25
2023-05-02T02:13:55.467Z,24.50
2023-05-02T02:14:58.191Z,27.25
2023-05-02T02:16:01.995Z,25.25
2023-05-02T02:17:07.020Z,25.75
2023-05-02T02:18:09.937Z,27.25
2023-05-02T02:19:14.109Z,26.50
2023-05-02T02:20:15.564Z,27.25
2023-05-02T02:21:18.092Z,23.25
2023-05-02T02:22:19.517Z,27.00
2023-05-02T02:23:22.221Z,27.75
2023-05-02T02:24:23.667Z,29.75
2023-05-02T02:25:26.100Z,31.00
2023-05-02T02:26:27.498Z,28.00
2023-05-02T02:27:29.892Z,25.50
2023-05-02T02:28:31.476Z,26.00
2023-05-02T02:29:33.879Z,24.50
2023-05-02T02:30:35.320Z,27.50
2023-05-02T02:31:39.800Z,26.50
2023-05-02T02:32:41.258Z,27.50
2023-05-02T02:33:43.802Z,26.75
2023-05-02T02:34:45.200Z,29.25
2023-05-02T02:35:49.361Z,27.75
2023-05-02T02:36:52.511Z,27.75
2023-05-02T02:37:56.258Z,25.25
2023-05-02T02:39:01.340Z,25.75
2023-05-02T02:40:05.794Z,33.50
2023-05-02T02:41:10.232Z,28.75
2023-05-02T02:42:13.203Z,26.50
2023-05-02T02:43:17.364Z,28.25
2023-05-02T02:44:24.031Z,29.25
2023-05-02T02:45:27.429Z,32.00
2023-05-02T02:46:31.612Z,27.00
2023-05-02T02:47:36.399Z,29.25
2023-05-02T02:48:40.824Z,29.25
2023-05-02T02:49:44.816Z,31.00
2023-05-02T02:50:50.564Z,30.00
2023-05-02T02:51:53.429Z,28.75
2023-05-02T02:52:56.495Z,33.50
2023-05-02T02:53:58.491Z,33.50
2023-05-02T02:55:01.818Z,36.25
2023-05-02T02:56:05.311Z,36.00
2023-05-02T02:57:08.691Z,33.00
2023-05-02T02:58:15.557Z,35.75
2023-05-02T02:59:20.254Z,34.75
2023-05-02T03:00:22.396Z,38.25
2023-05-02T03:01:25.500Z,32.50
2023-05-02T03:02:28.451Z,38.25
2023-05-02T03:03:32.358Z,35.75
2023-05-02T03:04:34.195Z,41.50
2023-05-02T03:05:36.662Z,38.25
2023-05-02T03:06:38.148Z,38.50
2023-05-02T03:07:40.602Z,41.50
2023-05-02T03:08:42.171Z,39.00
2023-05-02T03:09:44.582Z,35.50
2023-05-02T03:10:46.053Z,42.75
2023-05-02T03:11:48.432Z,40.50
2023-05-02T03:12:49.860Z,38.75
2023-05-02T03:13:52.743Z,38.50
2023-05-02T03:14:54.201Z,40.25
2023-05-02T03:16:15.221Z,42.25
2023-05-02T03:17:16.692Z,40.75
2023-05-02T03:18:19.199Z,40.25
2023-05-02T03:19:22.087Z,38.50
2023-05-02T03:20:24.483Z,42.00
2023-05-02T03:21:25.923Z,41.50
2023-05-02T03:22:28.307Z,42.50
2023-05-02T03:23:29.712Z,43.50
2023-05-02T03:24:32.396Z,47.50
2023-05-02T03:25:33.821Z,43.75
2023-05-02T03:26:36.228Z,45.25
2023-05-02T03:27:37.685Z,42.75
2023-05-02T03:28:40.127Z,42.75
2023-05-02T03:29:42.538Z,37.25
2023-05-02T03:30:43.957Z,40.50
2023-05-02T03:31:46.452Z,43.50
2023-05-02T03:32:47.982Z,46.00
2023-05-02T03:33:51.193Z,43.00
2023-05-02T03:34:58.323Z,43.00
2023-05-02T03:35:59.750Z,42.50
2023-05-02T03:37:02.161Z,43.25
2023-05-02T03:38:03.572Z,44.50
2023-05-02T03:39:06.613Z,44.50
2023-05-02T03:40:08.430Z,42.75
2023-05-02T03:41:10.804Z,42.50
2023-05-02T03:42:13.212Z,42.25
2023-05-02T03:43:14.613Z,45.75
2023-05-02T03:44:17.001Z,43.00
2023-05-02T03:45:18.522Z,45.75
2023-05-02T03:46:20.981Z,46.00
2023-05-02T03:47:22.478Z,43.50
2023-05-02T03:48:24.903Z,46.25
2023-05-02T03:49:26.352Z,45.00
2023-05-02T03:50:30.086Z,44.25
2023-05-02T03:51:33.728Z,42.75
2023-05-02T03:52:36.117Z,46.50
2023-05-02T03:53:37.619Z,46.50
2023-05-02T03:54:39.999Z,45.50
2023-05-02T03:55:41.432Z,45.25
2023-05-02T03:56:45.044Z,44.75
2023-05-02T03:57:46.562Z,44.00
2023-05-02T03:58:49.155Z,44.00
2023-05-02T03:59:50.570Z,45.25
2023-05-02T04:00:53.491Z,42.75
2023-05-02T04:01:54.970Z,44.00
2023-05-02T04:02:57.511Z,45.75
2023-05-02T04:03:59.364Z,46.50
2023-05-02T04:05:01.775Z,45.25
2023-05-02T04:06:04.619Z,46.25
2023-05-02T04:07:08.258Z,45.25
2023-05-02T04:08:10.440Z,46.25
2023-05-02T04:09:12.839Z,45.25
2023-05-02T04:10:16.650Z,45.50
2023-05-02T04:11:19.072Z,46.50
2023-05-02T04:12:20.649Z,45.50
2023-05-02T04:13:23.034Z,50.00
2023-05-02T04:14:24.440Z,44.50
2023-05-02T04:15:26.892Z,44.50
2023-05-02T04:16:28.398Z,44.25
2023-05-02T04:17:30.911Z,47.00
2023-05-02T04:18:32.451Z,46.25
2023-05-02T04:19:34.870Z,45.25
2023-05-02T04:20:36.286Z,42.75
2023-05-02T04:21:40.040Z,44.00
2023-05-02T04:22:41.569Z,44.00
2023-05-02T04:23:43.951Z,46.00
2023-05-02T04:24:45.362Z,46.50
2023-05-02T04:25:54.511Z,50.00
2023-05-02T04:26:56.917Z,44.75
2023-05-02T04:27:58.433Z,44.50
2023-05-02T04:29:00.793Z,43.75
2023-05-02T04:30:02.597Z,48.75
2023-05-02T04:31:05.296Z,45.00
2023-05-02T04:32:06.741Z,44.25
2023-05-02T04:33:09.259Z,45.75
2023-05-02T04:34:10.880Z,46.75
2023-05-02T04:35:15.347Z,43.75
2023-05-02T04:36:16.920Z,46.25
2023-05-02T04:37:21.211Z,45.00
2023-05-02T04:38:22.862Z,41.50
2023-05-02T04:39:25.332Z,43.25
2023-05-02T04:40:26.897Z,44.75
2023-05-02T04:41:29.265Z,45.00
2023-05-02T04:42:30.670Z,47.50
2023-05-02T04:43:33.089Z,43.75
2023-05-02T04:44:34.471Z,47.50
2023-05-02T04:45:37.288Z,46.25
2023-05-02T04:46:38.770Z,43.50
2023-05-02T04:47:41.545Z,45.00
2023-05-02T04:48:43.085Z,48.25
2023-05-02T04:49:45.467Z,43.00
2023-05-02T04:50:47.930Z,44.25
2023-05-02T04:51:49.404Z,46.50
2023-05-02T04:52:53.375Z,47.50
2023-05-02T04:53:55.829Z,44.50
2023-05-02T04:54:57.368Z,45.00
2023-05-02T04:55:59.776Z,46.50
2023-05-02T04:57:03.476Z,48.00
2023-05-02T04:58:05.881Z,44.50
2023-05-02T04:59:07.376Z,43.00
2023-05-02T05:00:10.188Z,44.75
2023-05-02T05:01:11.628Z,45.00
2023-05-02T05:02:14.183Z,41.75
2023-05-02T05:03:15.794Z,43.00
2023-05-02T05:04:18.356Z,44.50
2023-05-02T05:05:20.254Z,44.75
2023-05-02T05:06:22.919Z,46.50
2023-05-02T05:07:25.575Z,46.50
2023-05-02T05:08:29.311Z,45.50
2023-05-02T05:09:30.894Z,45.75
2023-05-02T05:10:33.297Z,43.75
2023-05-02T05:11:34.734Z,47.50
2023-05-02T05:12:37.120Z,43.00
2023-05-02T05:13:38.533Z,44.00
2023-05-02T05:14:41.321Z,44.75
2023-05-02T05:15:43.779Z,43.75
2023-05-02T05:16:46.455Z,43.50
2023-05-02T05:17:47.971Z,46.00
2023-05-02T05:18:50.390Z,48.25
2023-05-02T05:19:51.856Z,47.25
2023-05-02T05:20:54.252Z,48.25
2023-05-02T05:21:55.785Z,46.00
2023-05-02T05:22:58.184Z,49.50
2023-05-02T05:24:01.024Z,49.50
2023-05-02T05:25:03.594Z,51.75
2023-05-02T05:26:11.325Z,50.00
2023-05-02T05:27:13.702Z,50.50
2023-05-02T05:28:15.116Z,49.75
2023-05-02T05:29:18.192Z,50.00
2023-05-02T05:30:19.709Z,52.00
2023-05-02T05:31:24.021Z,50.00
2023-05-02T05:32:26.024Z,47.75
2023-05-02T05:33:28.532Z,52.00
2023-05-02T05:34:29.956Z,49.50
2023-05-02T05:35:32.850Z,53.00
2023-05-02T05:36:34.324Z,50.50
2023-05-02T05:37:37.410Z,52.50
2023-05-02T05:38:39.173Z,52.25
2023-05-02T05:39:42.966Z,49.75
2023-05-02T05:40:45.415Z,50.75
2023-05-02T05:41:46.803Z,49.25
2023-05-02T05:42:49.227Z,50.25
2023-05-02T05:43:50.643Z,50.25
2023-05-02T05:44:53.008Z,49.25
2023-05-02T05:45:54.463Z,49.25
2023-05-02T05:46:56.970Z,47.00
2023-05-02T05:47:58.504Z,51.00
2023-05-02T05:49:01.451Z,50.25
2023-05-02T05:50:03.146Z,51.25
2023-05-02T05:51:06.270Z,51.00
2023-05-02T05:52:08.233Z,47.25
2023-05-02T05:53:11.861Z,45.25
2023-05-02T05:54:14.351Z,44.25
2023-05-02T05:55:17.120Z,44.50
2023-05-02T05:56:19.539Z,47.50
2023-05-02T05:57:21.164Z,46.50
2023-05-02T05:58:23.556Z,49.75
2023-05-02T05:59:25.321Z,47.50
2023-05-02T06:00:27.871Z,50.75
2023-05-02T06:01:29.406Z,46.50
2023-05-02T06:02:32.014Z,44.50
2023-05-02T06:03:33.764Z,44.50
2023-05-02T06:04:36.271Z,45.75
2023-05-02T06:05:37.807Z,42.50
2023-05-02T06:06:40.376Z,44.75
2023-05-02T06:07:42.930Z,39.25
2023-05-02T06:08:44.386Z,43.75
2023-05-02T06:09:46.803Z,44.50
2023-05-02T06:10:49.644Z,39.00
2023-05-02T06:11:52.080Z,43.50
2023-05-02T06:12:53.524Z,42.75
2023-05-02T06:13:55.926Z,40.00
2023-05-02T06:14:57.379Z,41.50
2023-05-02T06:16:01.531Z,38.00
2023-05-02T06:17:03.977Z,42.75
2023-05-02T06:18:05.390Z,39.50
2023-05-02T06:19:07.813Z,35.25
2023-05-02T06:20:11.220Z,38.00
2023-05-02T06:21:13.666Z,37.75
2023-05-02T06:22:16.059Z,34.00
2023-05-02T06:23:18.590Z,32.00
2023-05-02T06:24:20.033Z,35.25
2023-05-02T06:25:22.416Z,39.75
2023-05-02T06:26:26.169Z,36.25
2023-05-02T06:27:27.720Z,36.00
2023-05-02T06:28:30.202Z,36.50
2023-05-02T06:29:32.583Z,37.75
2023-05-02T06:30:34.006Z,34.50
2023-05-02T06:31:36.426Z,32.25
2023-05-02T06:32:38.027Z,33.75
2023-05-02T06:33:40.443Z,35.00
2023-05-02T06:34:41.880Z,32.25
2023-05-02T06:35:44.256Z,32.75
2023-05-02T06:36:46.737Z,30.00
2023-05-02T06:37:48.243Z,28.50
2023-05-02T06:38:50.599Z,29.25
2023-05-02T06:39:51.991Z,31.50
2023-05-02T06:40:54.383Z,28.00
2023-05-02T06:41:58.094Z,31.00
2023-05-02T06:43:01.001Z,29.75
2023-05-02T06:44:03.379Z,27.75
2023-05-02T06:45:05.139Z,25.50
2023-05-02T06:46:07.561Z,27.00
2023-05-02T06:47:09.154Z,22.50
2023-05-02T06:48:11.918Z,29.75
2023-05-02T06:49:14.353Z,26.00
2023-05-02T06:50:16.904Z,24.75
2023-05-02T06:51:19.380Z,25.00
2023-05-02T06:52:21.781Z,21.75
2023-05-02T06:53:24.201Z,25.50
2023-05-02T06:54:25.919Z,28.25
2023-05-02T06:55:28.280Z,25.50
2023-05-02T06:56:29.697Z,22.00
2023-05-02T06:57:33.453Z,24.75
2023-05-02T06:58:35.889Z,25.50
2023-05-02T06:59:37.370Z,25.50
2023-05-02T07:00:39.862Z,28.00
2023-05-02T07:01:42.745Z,25.75
2023-05-02T07:02:44.381Z,30.00
2023-05-02T07:03:47.228Z,26.75
2023-05-02T07:04:48.817Z,22.25
2023-05-02T07:05:51.246Z,23.25
2023-05-02T07:06:52.854Z,24.25
2023-05-02T07:07:55.342Z,22.25
2023-05-02T07:08:57.098Z,23.25
2023-05-02T07:09:59.711Z,26.75
2023-05-02T07:11:02.051Z,22.25
2023-05-02T07:12:06.770Z,24.75
2023-05-02T07:13:10.831Z,24.75
2023-05-02T07:14:12.276Z,21.00
2023-05-02T07:15:16.458Z,20.50
2023-05-02T07:16:17.879Z,18.25
2023-05-02T07:17:20.263Z,14.50
2023-05-02T07:18:21.903Z,15.00
2023-05-02T07:19:25.048Z,17.25
2023-05-02T07:20:27.430Z,15.25
2023-05-02T07:21:28.845Z,12.50
2023-05-02T07:22:31.894Z,12.25
2023-05-02T07:23:34.289Z,16.00
2023-05-02T07:24:35.792Z,12.50
2023-05-02T07:25:39.898Z,14.00
2023-05-02T07:26:41.382Z,11.75
2023-05-02T07:27:43.770Z,15.00
2023-05-02T07:28:47.606Z,15.50
2023-05-02T07:29:49.022Z,15.50
2023-05-02T07:30:51.395Z,15.50
2023-05-02T07:31:52.847Z,17.25
2023-05-02T07:32:55.384Z,13.00
2023-05-02T07:33:56.861Z,15.00
2023-05-02T07:34:59.260Z,12.75
2023-05-02T07:36:01.560Z,15.00
2023-05-02T07:37:04.003Z,15.00
2023-05-02T07:38:06.392Z,13.00
2023-05-02T07:39:09.035Z,12.50
2023-05-02T07:40:12.009Z,13.75
2023-05-02T07:41:13.491Z,12.75
2023-05-02T07:42:15.872Z,12.25
2023-05-02T07:43:18.255Z,11.00
2023-05-02T07:44:21.976Z,11.25
2023-05-02T07:45:24.500Z,11.00
2023-05-02T07:46:26.971Z,11.75
2023-05-02T07:47:29.251Z,11.25
2023-05-02T07:48:31.700Z,11.00
2023-05-02T07:49:34.094Z,14.00
2023-05-02T07:50:35.531Z,10.75
2023-05-02T07:51:39.779Z,12.25
2023-05-02T07:52:42.207Z,11.00
2023-05-02T07:53:43.592Z,10.00
2023-05-02T07:54:46.024Z,9.00
2023-05-02T07:55:48.388Z,12.00
2023-05-02T07:56:49.771Z,10.75
2023-05-02T07:57:52.194Z,11.75
2023-05-02T07:58:53.819Z,14.00
2023-05-02T07:59:58.149Z,13.25
2023-05-02T08:01:00.696Z,13.50
2023-05-02T08:02:03.061Z,12.00
2023-05-02T08:03:04.620Z,12.50
2023-05-02T08:04:07.323Z,13.75
2023-05-02T08:05:10.038Z,13.50
2023-05-02T08:06:13.221Z,13.25
2023-05-02T08:07:14.637Z,11.50
2023-05-02T08:08:17.163Z,11.75
2023-05-02T08:09:19.529Z,9.75
2023-05-02T08:10:23.283Z,8.50
2023-05-02T08:11:26.019Z,12.50
2023-05-02T08:12:28.441Z,10.50
2023-05-02T08:13:29.889Z,11.25
2023-05-02T08:14:32.389Z,11.00
2023-05-02T08:15:35.481Z,9.75
2023-05-02T08:16:37.905Z,9.50
2023-05-02T08:17:40.360Z,10.50
2023-05-02T08:18:42.827Z,9.25
2023-05-02T08:19:44.352Z,11.00
2023-05-02T08:20:48.188Z,10.00
2023-05-02T08:21:50.628Z,11.50
2023-05-02T08:22:53.010Z,11.25
2023-05-02T08:23:58.039Z,8.50
2023-05-02T08:24:59.620Z,10.00
2023-05-02T08:26:02.014Z,12.50
2023-05-02T08:27:04.493Z,11.00
2023-05-02T08:28:06.858Z,12.00
2023-05-02T08:29:08.400Z,11.25
2023-05-02T08:30:11.042Z,11.75
2023-05-02T08:31:13.816Z,10.00
2023-05-02T08:32:16.401Z,11.00
2023-05-02T08:33:19.051Z,11.00
2023-05-02T08:34:21.597Z,12.00
2023-05-02T08:35:23.006Z,12.25
2023-05-02T08:36:25.450Z,11.00
2023-05-02T08:37:27.901Z,11.75
2023-05-02T08:38:30.307Z,11.50
2023-05-02T08:39:34.137Z,10.50
2023-05-02T08:40:41.494Z,13.50
2023-05-02T08:41:45.069Z,11.50
2023-05-02T08:42:47.746Z,13.50
2023-05-02T08:43:50.278Z,8.75
2023-05-02T08:44:52.754Z,11.25
2023-05-02T08:45:55.163Z,10.00
2023-05-02T08:46:59.074Z,10.50
2023-05-02T08:48:00.857Z,11.25
2023-05-02T08:49:04.405Z,11.25
2023-05-02T08:50:06.688Z,11.25
2023-05-02T08:51:09.648Z,11.00
2023-05-02T08:52:12.237Z,10.75
2023-05-02T08:53:14.732Z,11.25
2023-05-02T08:54:17.605Z,13.00
2023-05-02T08:55:27.725Z,12.00
2023-05-02T08:56:29.283Z,9.00
2023-05-02T08:57:31.808Z,9.00
2023-05-02T08:58:34.372Z,9.00
2023-05-02T08:59:36.783Z,8.00
2023-05-02T09:00:38.775Z,8.00
2023-05-02T09:01:41.226Z,8.00
2023-05-02T09:02:49.939Z,7.25
2023-05-02T09:03:52.743Z,7.75
2023-05-02T09:04:54.303Z,8.00
2023-05-02T09:05:58.679Z,6.25
2023-05-02T09:07:01.152Z,5.50
2023-05-02T09:08:03.047Z,6.00
2023-05-02T09:09:05.718Z,5.75
2023-05-02T09:10:07.969Z,6.00
2023-05-02T09:11:10.671Z,7.00
2023-05-02T09:12:12.059Z,5.25
2023-05-02T09:13:33.007Z,5.25
2023-05-02T09:14:35.716Z,5.25
2023-05-02T09:15:37.114Z,5.00
2023-05-02T09:16:39.977Z,6.00
2023-05-02T09:17:42.089Z,5.00
2023-05-02T09:18:46.652Z,5.25
2023-05-02T09:19:49.255Z,6.00
2023-05-02T09:20:51.143Z,6.50
2023-05-02T09:21:53.885Z,6.50
2023-05-02T09:22:55.308Z,6.50
2023-05-02T09:23:58.038Z,7.00
2023-05-02T09:25:00.825Z,6.00
2023-05-02T09:26:02.461Z,7.50
2023-05-02T09:27:05.607Z,8.75
2023-05-02T09:28:07.384Z,9.75
2023-05-02T09:29:09.761Z,8.75
2023-05-02T09:30:21.205Z,6.00
2023-05-02T09:31:43.641Z,8.50
2023-05-02T09:32:48.400Z,8.50
2023-05-02T09:33:52.157Z,8.50
2023-05-02T09:35:05.516Z,7.50
2023-05-02T09:36:08.416Z,6.00
2023-05-02T09:37:12.531Z,7.50
2023-05-02T09:38:19.453Z,7.75
2023-05-02T09:39:23.827Z,8.75
2023-05-02T09:40:30.085Z,6.00
2023-05-02T09:41:37.635Z,7.25
2023-05-02T09:42:39.028Z,7.00
2023-05-02T09:43:41.519Z,7.00
2023-05-02T09:44:43.065Z,9.00
2023-05-02T09:45:45.493Z,8.50
2023-05-02T09:46:48.547Z,6.25
2023-05-02T09:47:50.072Z,6.00
2023-05-02T09:48:54.526Z,7.00
2023-05-02T09:49:55.933Z,6.25
2023-05-02T09:50:58.427Z,6.00
2023-05-02T09:52:10.697Z,7.00
2023-05-02T09:53:12.112Z,6.00
2023-05-02T09:54:14.740Z,7.50
2023-05-02T09:55:22.362Z,9.75
2023-05-02T09:56:25.986Z,6.00
2023-05-02T09:57:39.243Z,6.75
2023-05-02T09:58:41.693Z,7.00
2023-05-02T09:59:53.710Z,7.00
2023-05-02T10:00:56.123Z,8.00
2023-05-02T10:01:58.906Z,6.25
2023-05-02T10:03:00.520Z,7.00
2023-05-02T10:04:04.330Z,7.00
2023-05-02T10:05:06.857Z,6.75
2023-05-02T10:06:09.549Z,7.00
2023-05-02T10:07:11.039Z,6.00
2023-05-02T10:08:13.536Z,8.50
2023-05-02T10:09:19.703Z,11.25
2023-05-02T10:10:23.898Z,7.00
2023-05-02T10:11:25.699Z,9.50
2023-05-02T10:12:28.063Z,7.00
2023-05-02T10:13:32.249Z,6.75
2023-05-02T10:14:35.848Z,8.00
2023-05-02T10:15:38.603Z,8.50
2023-05-02T10:16:42.997Z,6.00
2023-05-02T10:17:47.531Z,5.75
2023-05-02T10:18:53.313Z,5.00
2023-05-02T10:19:57.007Z,5.00
2023-05-02T10:20:59.714Z,5.00
2023-05-02T10:22:01.198Z,5.00
2023-05-02T10:23:03.594Z,5.25
2023-05-02T10:24:06.027Z,5.00
2023-05-02T10:25:07.744Z,5.25
2023-05-02T10:26:10.232Z,5.75
2023-05-02T10:27:12.650Z,5.00
2023-05-02T10:28:14.091Z,5.75
2023-05-02T10:29:16.454Z,5.25
2023-05-02T10:30:17.857Z,5.25
2023-05-02T10:31:20.636Z,7.00
2023-05-02T10:32:22.274Z,6.25
2023-05-02T10:33:24.773Z,6.00
2023-05-02T10:34:27.144Z,5.00
2023-05-02T10:35:30.854Z,6.00
2023-05-02T10:36:33.726Z,5.25
2023-05-02T10:37:36.531Z,6.75
2023-05-02T10:38:39.095Z,5.50
2023-05-02T10:39:40.493Z,5.50
2023-05-02T10:40:43.076Z,6.00
2023-05-02T10:41:45.939Z,6.00
2023-05-02T10:42:47.463Z,6.75
2023-05-02T10:43:50.073Z,6.50
2023-05-02T10:44:51.470Z,6.00
2023-05-02T10:45:54.540Z,4.00
2023-05-02T10:46:56.231Z,5.75
2023-05-02T10:48:13.536Z,9.00
2023-05-02T10:49:15.937Z,7.75
2023-05-02T10:50:17.366Z,10.00
2023-05-02T10:51:28.991Z,9.50
2023-05-02T10:52:32.854Z,9.75
2023-05-02T10:53:36.448Z,8.75
2023-05-02T10:54:38.019Z,9.00
2023-05-02T10:55:40.712Z,9.00
2023-05-02T10:56:58.011Z,9.50
2023-05-02T10:58:18.020Z,13.00
2023-05-02T10:59:30.052Z,12.25
2023-05-02T11:00:32.367Z,12.00
2023-05-02T11:01:39.645Z,12.00
2023-05-02T11:02:47.293Z,13.00
2023-05-02T11:03:56.559Z,9.00
2023-05-02T11:05:03.088Z,12.75
2023-05-02T11:06:05.210Z,13.00
2023-05-02T11:07:18.991Z,12.00
2023-05-02T11:08:32.697Z,13.00
2023-05-02T11:09:35.162Z,13.00
2023-05-02T11:10:37.544Z,10.50
2023-05-02T11:11:39.775Z,10.00
2023-05-02T11:12:45.434Z,9.50
2023-05-02T11:13:50.698Z,12.75
2023-05-02T11:14:53.130Z,10.00
2023-05-02T11:15:54.768Z,10.50
2023-05-02T11:17:06.768Z,10.00
2023-05-02T11:18:12.560Z,13.00
2023-05-02T11:19:14.429Z,13.00
2023-05-02T11:20:20.074Z,13.50
2023-05-02T11:21:29.586Z,14.00
2023-05-02T11:22:32.556Z,14.00
2023-05-02T11:23:37.017Z,12.75
2023-05-02T11:24:39.057Z,13.75
2023-05-02T11:25:43.363Z,10.25
2023-05-02T11:26:45.782Z,9.00
2023-05-02T11:27:49.510Z,6.25
2023-05-02T11:28:52.716Z,7.00
2023-05-02T11:29:54.290Z,5.25
2023-05-02T11:30:57.936Z,7.00
2023-05-02T11:31:59.524Z,7.00
2023-05-02T11:33:20.564Z,6.00
2023-05-02T11:34:22.045Z,8.25
2023-05-02T11:35:24.701Z,8.75
2023-05-02T11:36:30.720Z,7.00
2023-05-02T11:37:34.455Z,6.00
2023-05-02T11:38:37.353Z,5.25
2023-05-02T11:39:38.752Z,6.00
2023-05-02T11:40:41.332Z,6.25
2023-05-02T11:41:43.745Z,6.00
2023-05-02T11:42:45.178Z,6.00
2023-05-02T11:43:47.594Z,6.25
2023-05-02T11:44:58.727Z,10.00
2023-05-02T11:46:02.540Z,9.00
2023-05-02T11:47:04.405Z,6.75
2023-05-02T11:48:07.694Z,7.50
2023-05-02T11:49:14.709Z,8.25
2023-05-02T11:50:16.771Z,6.50
2023-05-02T11:51:23.450Z,6.00
2023-05-02T11:52:24.978Z,6.00
2023-05-02T11:53:29.830Z,6.00
2023-05-02T11:54:31.495Z,6.25
2023-05-02T11:55:33.879Z,5.75
2023-05-02T11:56:36.482Z,7.50
2023-05-02T11:57:37.874Z,7.75
2023-05-02T11:58:40.952Z,7.75
2023-05-02T11:59:52.919Z,7.00
2023-05-02T12:00:55.312Z,7.00
2023-05-02T12:01:58.124Z,6.25
2023-05-02T12:02:59.630Z,16.75
2023-05-02T12:04:02.881Z,10.50
2023-05-02T12:05:06.017Z,6.50
2023-05-02T12:06:12.424Z,9.75
2023-05-02T12:07:14.386Z,6.75
2023-05-02T12:08:20.316Z,6.75
2023-05-02T12:09:24.164Z,6.00
2023-05-02T12:10:26.317Z,6.50
2023-05-02T12:11:28.719Z,7.25
2023-05-02T12:12:30.152Z,7.00
2023-05-02T12:13:32.697Z,7.00
2023-05-02T12:14:35.596Z,7.00
2023-05-02T12:15:37.978Z,7.25
2023-05-02T12:16:40.846Z,9.25
2023-05-02T12:17:42.851Z,11.00
2023-05-02T12:18:45.333Z,8.75
2023-05-02T12:19:46.747Z,10.25
2023-05-02T12:20:49.125Z,8.00
2023-05-02T12:21:51.756Z,6.50
2023-05-02T12:22:54.199Z,6.50
2023-05-02T12:23:57.078Z,7.00
2023-05-02T12:25:00.037Z,7.75
2023-05-02T12:26:11.449Z,5.50
2023-05-02T12:27:13.295Z,3.00
2023-05-02T12:28:15.711Z,6.75
2023-05-02T12:29:18.187Z,7.00
2023-05-02T12:30:25.461Z,5.25
2023-05-02T12:31:30.939Z,6.00
2023-05-02T12:32:33.285Z,6.75
2023-05-02T12:33:42.786Z,5.50
2023-05-02T12:34:44.213Z,6.00
2023-05-02T12:35:47.350Z,7.00
2023-05-02T12:36:48.802Z,7.00
2023-05-02T12:37:51.191Z,6.00
2023-05-02T12:38:55.143Z,7.00
2023-05-02T12:39:56.812Z,6.00
2023-05-02T12:41:00.652Z,5.50
2023-05-02T12:42:08.786Z,6.75
2023-05-02T12:43:11.159Z,8.00
2023-05-02T12:44:13.564Z,6.00
2023-05-02T12:45:18.014Z,7.50
2023-05-02T12:46:20.605Z,7.50
2023-05-02T12:47:22.536Z,6.25
2023-05-02T12:48:25.454Z,8.50
2023-05-02T12:49:27.931Z,7.50
2023-05-02T12:50:37.341Z,7.00
2023-05-02T12:51:40.001Z,6.25
2023-05-02T12:52:48.048Z,7.00
2023-05-02T12:53:50.421Z,8.25
2023-05-02T12:54:52.917Z,7.25
2023-05-02T12:56:03.804Z,7.50
2023-05-02T12:57:06.160Z,7.00
2023-05-02T12:58:07.905Z,6.50
2023-05-02T12:59:10.329Z,9.75
2023-05-02T13:00:12.262Z,8.25
2023-05-02T13:01:15.102Z,7.00
2023-05-02T13:02:16.598Z,7.50
2023-05-02T13:03:19.115Z,10.00
2023-05-02T13:04:21.681Z,11.00
2023-05-02T13:05:23.300Z,15.50
2023-05-02T13:06:26.077Z,11.00
2023-05-02T13:07:28.484Z,10.25
2023-05-02T13:08:30.852Z,9.50
2023-05-02T13:09:33.266Z,6.50
2023-05-02T13:10:35.651Z,8.75
2023-05-02T13:11:39.318Z,8.75
2023-05-02T13:12:41.955Z,9.75
2023-05-02T13:13:44.697Z,8.75
2023-05-02T13:14:46.283Z,10.00
2023-05-02T13:15:48.768Z,9.75
2023-05-02T13:16:53.347Z,7.00
2023-05-02T13:17:55.914Z,9.00
2023-05-02T13:18:57.504Z,8.75
2023-05-02T13:20:02.254Z,7.50
2023-05-02T13:21:05.714Z,10.75
2023-05-02T13:22:08.711Z,10.00
2023-05-02T13:23:11.164Z,10.25
2023-05-02T13:24:13.121Z,10.00
2023-05-02T13:25:15.551Z,12.00
2023-05-02T13:26:17.948Z,10.00
2023-05-02T13:27:21.876Z,10.00
2023-05-02T13:28:24.328Z,10.50
2023-05-02T13:29:25.739Z,10.00
2023-05-02T13:30:28.234Z,10.75
2023-05-02T13:31:30.701Z,11.00
2023-05-02T13:32:32.271Z,10.00
2023-05-02T13:33:34.689Z,10.75
2023-05-02T13:34:36.107Z,9.25
2023-05-02T13:35:38.848Z,10.00
2023-05-02T13:36:45.950Z,8.00
2023-05-02T13:37:49.043Z,10.00
2023-05-02T13:38:51.484Z,11.00